sensor_id;sensor_type;location;lat;lon;timestamp;P1;durP1;ratioP1;P2;durP2;ratioP2
73954;SDS011;62306;52.516;13.290;2022-11-23T00:02:18;87.85;;;34.58;;
73954;SDS011;62306;52.516;13.290;2022-11-23T00:04:45;92.55;;;34.17;;
73954;SDS011;62306;52.516;13.290;2022-11-23T00:07:11;94.18;;;34.42;;
73954;SDS011;62306;52.516;13.290;2022-11-23T00:09:38;100.80;;;34.75;;
73954;SDS011;62306;52.516;13.290;2022-11-23T00:12:05;91.60;;;33.72;;
73954;SDS011;62306;52.516;13.290;2022-11-23T00:14:32;90.38;;;32.42;;
73954;SDS011;62306;52.516;13.290;2022-11-23T00:16:59;89.13;;;33.53;;
73954;SDS011;62306;52.516;13.290;2022-11-23T00:19:28;92.30;;;34.70;;
73954;SDS011;62306;52.516;13.290;2022-11-23T00:21:55;89.28;;;33.45;;
73954;SDS011;62306;52.516;13.290;2022-11-23T00:24:21;88.40;;;34.05;;
73954;SDS011;62306;52.516;13.290;2022-11-23T00:26:48;81.68;;;32.13;;
73954;SDS011;62306;52.516;13.290;2022-11-23T00:29:15;87.05;;;32.08;;
73954;SDS011;62306;52.516;13.290;2022-11-23T00:31:42;90.03;;;34.25;;
73954;SDS011;62306;52.516;13.290;2022-11-23T00:34:09;88.63;;;35.13;;
73954;SDS011;62306;52.516;13.290;2022-11-23T00:36:37;90.63;;;34.33;;
73954;SDS011;62306;52.516;13.290;2022-11-23T00:39:04;94.05;;;34.65;;
73954;SDS011;62306;52.516;13.290;2022-11-23T00:41:31;95.10;;;33.80;;
73954;SDS011;62306;52.516;13.290;2022-11-23T00:43:58;91.72;;;33.63;;
73954;SDS011;62306;52.516;13.290;2022-11-23T00:46:25;84.35;;;33.03;;
73954;SDS011;62306;52.516;13.290;2022-11-23T00:48:53;81.57;;;32.55;;
73954;SDS011;62306;52.516;13.290;2022-11-23T00:51:22;82.38;;;32.28;;
73954;SDS011;62306;52.516;13.290;2022-11-23T00:53:52;88.80;;;32.13;;
73954;SDS011;62306;52.516;13.290;2022-11-23T00:56:19;83.28;;;32.25;;
73954;SDS011;62306;52.516;13.290;2022-11-23T00:58:47;78.95;;;31.40;;
73954;SDS011;62306;52.516;13.290;2022-11-23T01:01:15;79.45;;;31.48;;
73954;SDS011;62306;52.516;13.290;2022-11-23T01:03:43;81.07;;;30.95;;
73954;SDS011;62306;52.516;13.290;2022-11-23T01:06:12;86.07;;;32.97;;
73954;SDS011;62306;52.516;13.290;2022-11-23T01:08:40;84.25;;;32.55;;
73954;SDS011;62306;52.516;13.290;2022-11-23T01:11:10;83.45;;;31.77;;
73954;SDS011;62306;52.516;13.290;2022-11-23T01:13:38;81.47;;;31.58;;
73954;SDS011;62306;52.516;13.290;2022-11-23T01:16:06;79.45;;;32.28;;
73954;SDS011;62306;52.516;13.290;2022-11-23T01:18:38;77.18;;;31.60;;
73954;SDS011;62306;52.516;13.290;2022-11-23T01:21:05;76.63;;;30.73;;
73954;SDS011;62306;52.516;13.290;2022-11-23T01:23:33;77.25;;;32.00;;
73954;SDS011;62306;52.516;13.290;2022-11-23T01:26:03;79.13;;;29.75;;
73954;SDS011;62306;52.516;13.290;2022-11-23T01:28:32;78.40;;;30.70;;
73954;SDS011;62306;52.516;13.290;2022-11-23T01:31:03;72.50;;;30.65;;
73954;SDS011;62306;52.516;13.290;2022-11-23T01:33:31;73.13;;;30.45;;
73954;SDS011;62306;52.516;13.290;2022-11-23T01:35:57;84.20;;;32.92;;
73954;SDS011;62306;52.516;13.290;2022-11-23T01:38:24;77.45;;;30.33;;
73954;SDS011;62306;52.516;13.290;2022-11-23T01:40:51;83.03;;;32.25;;
73954;SDS011;62306;52.516;13.290;2022-11-23T01:43:18;74.80;;;30.17;;
73954;SDS011;62306;52.516;13.290;2022-11-23T01:45:55;76.30;;;31.05;;
73954;SDS011;62306;52.516;13.290;2022-11-23T01:48:24;77.68;;;30.10;;
73954;SDS011;62306;52.516;13.290;2022-11-23T01:50:52;74.45;;;31.20;;
73954;SDS011;62306;52.516;13.290;2022-11-23T01:53:21;73.13;;;30.80;;
73954;SDS011;62306;52.516;13.290;2022-11-23T01:55:48;73.45;;;30.02;;
73954;SDS011;62306;52.516;13.290;2022-11-23T01:58:17;74.97;;;30.65;;
73954;SDS011;62306;52.516;13.290;2022-11-23T02:00:48;72.00;;;31.17;;
73954;SDS011;62306;52.516;13.290;2022-11-23T02:03:16;74.30;;;31.42;;
73954;SDS011;62306;52.516;13.290;2022-11-23T02:05:45;75.07;;;30.95;;
73954;SDS011;62306;52.516;13.290;2022-11-23T02:08:14;74.28;;;28.98;;
73954;SDS011;62306;52.516;13.290;2022-11-23T02:10:44;67.20;;;28.55;;
73954;SDS011;62306;52.516;13.290;2022-11-23T02:13:11;69.10;;;28.52;;
73954;SDS011;62306;52.516;13.290;2022-11-23T02:15:40;70.18;;;29.55;;
73954;SDS011;62306;52.516;13.290;2022-11-23T02:18:09;66.45;;;27.98;;
73954;SDS011;62306;52.516;13.290;2022-11-23T02:20:41;61.45;;;27.25;;
73954;SDS011;62306;52.516;13.290;2022-11-23T02:23:13;70.95;;;30.08;;
73954;SDS011;62306;52.516;13.290;2022-11-23T02:25:52;67.65;;;28.75;;
73954;SDS011;62306;52.516;13.290;2022-11-23T02:28:24;73.47;;;29.38;;
73954;SDS011;62306;52.516;13.290;2022-11-23T02:30:54;70.20;;;28.73;;
73954;SDS011;62306;52.516;13.290;2022-11-23T02:33:21;70.28;;;28.67;;
73954;SDS011;62306;52.516;13.290;2022-11-23T02:35:50;68.97;;;29.63;;
73954;SDS011;62306;52.516;13.290;2022-11-23T02:38:18;70.53;;;28.20;;
73954;SDS011;62306;52.516;13.290;2022-11-23T02:40:46;68.63;;;28.73;;
73954;SDS011;62306;52.516;13.290;2022-11-23T02:43:14;66.68;;;28.08;;
73954;SDS011;62306;52.516;13.290;2022-11-23T02:45:42;72.50;;;28.42;;
73954;SDS011;62306;52.516;13.290;2022-11-23T02:48:14;70.90;;;30.38;;
73954;SDS011;62306;52.516;13.290;2022-11-23T02:50:41;63.55;;;27.05;;
73954;SDS011;62306;52.516;13.290;2022-11-23T02:53:08;69.43;;;27.90;;
73954;SDS011;62306;52.516;13.290;2022-11-23T02:55:36;64.63;;;28.52;;
73954;SDS011;62306;52.516;13.290;2022-11-23T02:58:03;64.80;;;27.95;;
73954;SDS011;62306;52.516;13.290;2022-11-23T03:00:33;70.30;;;28.58;;
73954;SDS011;62306;52.516;13.290;2022-11-23T03:03:00;72.47;;;27.45;;
73954;SDS011;62306;52.516;13.290;2022-11-23T03:05:28;65.68;;;30.45;;
73954;SDS011;62306;52.516;13.290;2022-11-23T03:07:55;69.55;;;28.60;;
73954;SDS011;62306;52.516;13.290;2022-11-23T03:10:22;75.68;;;29.58;;
73954;SDS011;62306;52.516;13.290;2022-11-23T03:12:52;70.60;;;28.50;;
73954;SDS011;62306;52.516;13.290;2022-11-23T03:15:19;66.75;;;28.27;;
73954;SDS011;62306;52.516;13.290;2022-11-23T03:17:47;69.25;;;29.08;;
73954;SDS011;62306;52.516;13.290;2022-11-23T03:20:14;68.57;;;29.65;;
73954;SDS011;62306;52.516;13.290;2022-11-23T03:22:41;72.50;;;29.42;;
73954;SDS011;62306;52.516;13.290;2022-11-23T03:25:08;73.68;;;30.33;;
73954;SDS011;62306;52.516;13.290;2022-11-23T03:27:36;71.80;;;30.38;;
73954;SDS011;62306;52.516;13.290;2022-11-23T03:30:04;76.20;;;29.58;;
73954;SDS011;62306;52.516;13.290;2022-11-23T03:32:32;71.95;;;29.75;;
73954;SDS011;62306;52.516;13.290;2022-11-23T03:35:01;78.45;;;30.58;;
73954;SDS011;62306;52.516;13.290;2022-11-23T03:37:28;74.18;;;29.70;;
73954;SDS011;62306;52.516;13.290;2022-11-23T03:39:55;76.80;;;28.92;;
73954;SDS011;62306;52.516;13.290;2022-11-23T03:42:21;78.32;;;31.25;;
73954;SDS011;62306;52.516;13.290;2022-11-23T03:44:48;65.25;;;29.63;;
73954;SDS011;62306;52.516;13.290;2022-11-23T03:47:15;67.57;;;27.77;;
73954;SDS011;62306;52.516;13.290;2022-11-23T03:49:42;75.95;;;29.35;;
73954;SDS011;62306;52.516;13.290;2022-11-23T03:52:11;69.13;;;28.33;;
73954;SDS011;62306;52.516;13.290;2022-11-23T03:54:38;73.18;;;29.42;;
73954;SDS011;62306;52.516;13.290;2022-11-23T03:57:05;72.88;;;28.85;;
73954;SDS011;62306;52.516;13.290;2022-11-23T03:59:32;74.68;;;29.92;;
73954;SDS011;62306;52.516;13.290;2022-11-23T04:01:59;67.68;;;27.45;;
73954;SDS011;62306;52.516;13.290;2022-11-23T04:04:26;102.82;;;47.30;;
73954;SDS011;62306;52.516;13.290;2022-11-23T04:06:53;74.90;;;31.02;;
73954;SDS011;62306;52.516;13.290;2022-11-23T04:09:21;70.05;;;27.33;;
73954;SDS011;62306;52.516;13.290;2022-11-23T04:11:48;69.15;;;27.45;;
73954;SDS011;62306;52.516;13.290;2022-11-23T04:14:15;69.55;;;28.63;;
73954;SDS011;62306;52.516;13.290;2022-11-23T04:16:42;71.03;;;28.92;;
73954;SDS011;62306;52.516;13.290;2022-11-23T04:19:09;68.60;;;28.83;;
73954;SDS011;62306;52.516;13.290;2022-11-23T04:21:36;68.75;;;27.92;;
73954;SDS011;62306;52.516;13.290;2022-11-23T04:24:03;77.22;;;29.70;;
73954;SDS011;62306;52.516;13.290;2022-11-23T04:26:32;73.00;;;30.15;;
73954;SDS011;62306;52.516;13.290;2022-11-23T04:28:59;77.00;;;29.23;;
73954;SDS011;62306;52.516;13.290;2022-11-23T04:31:26;71.25;;;27.45;;
73954;SDS011;62306;52.516;13.290;2022-11-23T04:33:53;66.88;;;28.42;;
73954;SDS011;62306;52.516;13.290;2022-11-23T04:36:21;72.47;;;30.10;;
73954;SDS011;62306;52.516;13.290;2022-11-23T04:38:48;71.28;;;28.77;;
73954;SDS011;62306;52.516;13.290;2022-11-23T04:41:15;66.68;;;27.92;;
73954;SDS011;62306;52.516;13.290;2022-11-23T04:43:43;67.05;;;27.45;;
73954;SDS011;62306;52.516;13.290;2022-11-23T04:46:12;72.85;;;29.23;;
73954;SDS011;62306;52.516;13.290;2022-11-23T04:48:39;73.00;;;27.05;;
73954;SDS011;62306;52.516;13.290;2022-11-23T04:51:06;76.72;;;29.55;;
73954;SDS011;62306;52.516;13.290;2022-11-23T04:53:33;71.57;;;29.13;;
73954;SDS011;62306;52.516;13.290;2022-11-23T04:56:00;62.83;;;26.73;;
73954;SDS011;62306;52.516;13.290;2022-11-23T04:58:26;72.38;;;28.50;;
73954;SDS011;62306;52.516;13.290;2022-11-23T05:00:55;66.85;;;27.02;;
73954;SDS011;62306;52.516;13.290;2022-11-23T05:03:22;79.22;;;28.55;;
73954;SDS011;62306;52.516;13.290;2022-11-23T05:05:49;65.80;;;26.70;;
73954;SDS011;62306;52.516;13.290;2022-11-23T05:08:16;70.07;;;30.02;;
73954;SDS011;62306;52.516;13.290;2022-11-23T05:10:43;71.90;;;26.85;;
73954;SDS011;62306;52.516;13.290;2022-11-23T05:13:10;70.78;;;27.42;;
73954;SDS011;62306;52.516;13.290;2022-11-23T05:15:37;64.03;;;25.95;;
73954;SDS011;62306;52.516;13.290;2022-11-23T05:18:05;64.28;;;25.83;;
73954;SDS011;62306;52.516;13.290;2022-11-23T05:20:34;63.75;;;26.42;;
73954;SDS011;62306;52.516;13.290;2022-11-23T05:23:01;70.03;;;27.67;;
73954;SDS011;62306;52.516;13.290;2022-11-23T05:25:29;61.60;;;27.02;;
73954;SDS011;62306;52.516;13.290;2022-11-23T05:27:56;63.90;;;26.67;;
73954;SDS011;62306;52.516;13.290;2022-11-23T05:30:23;65.45;;;27.52;;
73954;SDS011;62306;52.516;13.290;2022-11-23T05:32:50;64.60;;;27.40;;
73954;SDS011;62306;52.516;13.290;2022-11-23T05:35:18;64.18;;;27.30;;
73954;SDS011;62306;52.516;13.290;2022-11-23T05:37:45;63.13;;;26.38;;
73954;SDS011;62306;52.516;13.290;2022-11-23T05:40:12;64.90;;;26.67;;
73954;SDS011;62306;52.516;13.290;2022-11-23T05:42:39;64.25;;;26.60;;
73954;SDS011;62306;52.516;13.290;2022-11-23T05:45:06;66.72;;;26.75;;
73954;SDS011;62306;52.516;13.290;2022-11-23T05:47:34;60.60;;;26.05;;
73954;SDS011;62306;52.516;13.290;2022-11-23T05:50:00;71.53;;;28.88;;
73954;SDS011;62306;52.516;13.290;2022-11-23T05:52:29;60.03;;;25.50;;
73954;SDS011;62306;52.516;13.290;2022-11-23T05:54:56;62.80;;;26.30;;
73954;SDS011;62306;52.516;13.290;2022-11-23T05:57:23;62.05;;;26.42;;
73954;SDS011;62306;52.516;13.290;2022-11-23T05:59:49;62.83;;;25.65;;
73954;SDS011;62306;52.516;13.290;2022-11-23T06:02:17;57.35;;;25.50;;
73954;SDS011;62306;52.516;13.290;2022-11-23T06:04:43;63.40;;;27.20;;
73954;SDS011;62306;52.516;13.290;2022-11-23T06:07:10;62.33;;;26.85;;
73954;SDS011;62306;52.516;13.290;2022-11-23T06:09:39;64.85;;;27.00;;
73954;SDS011;62306;52.516;13.290;2022-11-23T06:12:06;60.80;;;25.88;;
73954;SDS011;62306;52.516;13.290;2022-11-23T06:14:33;66.88;;;26.60;;
73954;SDS011;62306;52.516;13.290;2022-11-23T06:17:00;60.47;;;26.35;;
73954;SDS011;62306;52.516;13.290;2022-11-23T06:19:26;67.50;;;25.33;;
73954;SDS011;62306;52.516;13.290;2022-11-23T06:21:54;64.68;;;26.88;;
73954;SDS011;62306;52.516;13.290;2022-11-23T06:24:21;68.38;;;26.77;;
73954;SDS011;62306;52.516;13.290;2022-11-23T06:26:49;70.05;;;27.50;;
73954;SDS011;62306;52.516;13.290;2022-11-23T06:29:17;63.70;;;27.65;;
73954;SDS011;62306;52.516;13.290;2022-11-23T06:31:44;67.88;;;27.10;;
73954;SDS011;62306;52.516;13.290;2022-11-23T06:34:12;62.25;;;25.73;;
73954;SDS011;62306;52.516;13.290;2022-11-23T06:36:39;60.13;;;25.10;;
73954;SDS011;62306;52.516;13.290;2022-11-23T06:39:07;66.07;;;26.73;;
73954;SDS011;62306;52.516;13.290;2022-11-23T06:41:34;63.05;;;26.30;;
73954;SDS011;62306;52.516;13.290;2022-11-23T06:44:03;68.30;;;26.10;;
73954;SDS011;62306;52.516;13.290;2022-11-23T06:46:30;60.72;;;25.77;;
73954;SDS011;62306;52.516;13.290;2022-11-23T06:48:56;63.85;;;25.77;;
73954;SDS011;62306;52.516;13.290;2022-11-23T06:51:23;64.15;;;25.55;;
73954;SDS011;62306;52.516;13.290;2022-11-23T06:53:50;64.25;;;26.83;;
73954;SDS011;62306;52.516;13.290;2022-11-23T06:56:17;59.80;;;24.95;;
73954;SDS011;62306;52.516;13.290;2022-11-23T06:58:44;59.20;;;24.80;;
73954;SDS011;62306;52.516;13.290;2022-11-23T07:01:13;59.60;;;26.75;;
73954;SDS011;62306;52.516;13.290;2022-11-23T07:03:40;62.80;;;25.85;;
73954;SDS011;62306;52.516;13.290;2022-11-23T07:06:07;58.05;;;25.17;;
73954;SDS011;62306;52.516;13.290;2022-11-23T07:08:35;61.83;;;25.35;;
73954;SDS011;62306;52.516;13.290;2022-11-23T07:11:04;59.13;;;25.80;;
73954;SDS011;62306;52.516;13.290;2022-11-23T07:13:31;61.28;;;24.90;;
73954;SDS011;62306;52.516;13.290;2022-11-23T07:15:58;62.55;;;25.48;;
73954;SDS011;62306;52.516;13.290;2022-11-23T07:18:27;56.92;;;24.85;;
73954;SDS011;62306;52.516;13.290;2022-11-23T07:20:55;60.95;;;25.35;;
73954;SDS011;62306;52.516;13.290;2022-11-23T07:23:22;56.10;;;24.65;;
73954;SDS011;62306;52.516;13.290;2022-11-23T07:25:49;65.55;;;25.08;;
73954;SDS011;62306;52.516;13.290;2022-11-23T07:28:16;58.63;;;26.58;;
73954;SDS011;62306;52.516;13.290;2022-11-23T07:30:43;67.03;;;25.52;;
73954;SDS011;62306;52.516;13.290;2022-11-23T07:33:11;66.65;;;27.10;;
73954;SDS011;62306;52.516;13.290;2022-11-23T07:35:40;64.90;;;25.42;;
73954;SDS011;62306;52.516;13.290;2022-11-23T07:38:07;61.30;;;24.98;;
73954;SDS011;62306;52.516;13.290;2022-11-23T07:40:34;56.90;;;24.60;;
73954;SDS011;62306;52.516;13.290;2022-11-23T07:43:03;57.55;;;25.13;;
73954;SDS011;62306;52.516;13.290;2022-11-23T07:45:32;64.32;;;25.58;;
73954;SDS011;62306;52.516;13.290;2022-11-23T07:48:01;57.92;;;24.95;;
73954;SDS011;62306;52.516;13.290;2022-11-23T07:50:29;60.45;;;25.52;;
73954;SDS011;62306;52.516;13.290;2022-11-23T07:53:00;59.33;;;25.08;;
73954;SDS011;62306;52.516;13.290;2022-11-23T07:55:27;56.05;;;23.92;;
73954;SDS011;62306;52.516;13.290;2022-11-23T07:57:55;60.67;;;26.75;;
73954;SDS011;62306;52.516;13.290;2022-11-23T08:00:23;73.78;;;34.95;;
73954;SDS011;62306;52.516;13.290;2022-11-23T08:02:52;62.60;;;25.20;;
73954;SDS011;62306;52.516;13.290;2022-11-23T08:05:19;59.08;;;26.02;;
73954;SDS011;62306;52.516;13.290;2022-11-23T08:07:46;57.10;;;24.45;;
73954;SDS011;62306;52.516;13.290;2022-11-23T08:10:14;59.20;;;24.75;;
73954;SDS011;62306;52.516;13.290;2022-11-23T08:12:41;61.10;;;23.63;;
73954;SDS011;62306;52.516;13.290;2022-11-23T08:15:08;57.97;;;25.42;;
73954;SDS011;62306;52.516;13.290;2022-11-23T08:17:36;60.58;;;25.20;;
73954;SDS011;62306;52.516;13.290;2022-11-23T08:20:03;60.42;;;25.77;;
73954;SDS011;62306;52.516;13.290;2022-11-23T08:22:30;97.13;;;45.78;;
73954;SDS011;62306;52.516;13.290;2022-11-23T08:24:57;55.80;;;24.70;;
73954;SDS011;62306;52.516;13.290;2022-11-23T08:27:25;56.05;;;25.65;;
73954;SDS011;62306;52.516;13.290;2022-11-23T08:29:52;55.35;;;23.50;;
73954;SDS011;62306;52.516;13.290;2022-11-23T10:52:05;37.00;;;17.27;;
73954;SDS011;62306;52.516;13.290;2022-11-23T10:54:53;31.92;;;16.27;;
73954;SDS011;62306;52.516;13.290;2022-11-23T10:57:27;33.60;;;17.40;;
73954;SDS011;62306;52.516;13.290;2022-11-23T10:59:57;29.70;;;15.55;;
73954;SDS011;62306;52.516;13.290;2022-11-23T11:02:26;37.13;;;17.83;;
73954;SDS011;62306;52.516;13.290;2022-11-23T11:07:40;36.97;;;17.05;;
73954;SDS011;62306;52.516;13.290;2022-11-23T11:10:23;33.08;;;15.95;;
73954;SDS011;62306;52.516;13.290;2022-11-23T11:13:00;36.67;;;16.85;;
73954;SDS011;62306;52.516;13.290;2022-11-23T11:15:27;34.47;;;17.73;;
73954;SDS011;62306;52.516;13.290;2022-11-23T11:17:54;32.72;;;16.88;;
73954;SDS011;62306;52.516;13.290;2022-11-23T11:20:27;28.85;;;15.40;;
73954;SDS011;62306;52.516;13.290;2022-11-23T11:22:57;33.38;;;17.48;;
73954;SDS011;62306;52.516;13.290;2022-11-23T11:25:28;32.67;;;17.05;;
73954;SDS011;62306;52.516;13.290;2022-11-23T11:27:57;35.00;;;17.25;;
73954;SDS011;62306;52.516;13.290;2022-11-23T11:30:24;38.30;;;18.17;;
73954;SDS011;62306;52.516;13.290;2022-11-23T11:32:58;36.15;;;16.95;;
73954;SDS011;62306;52.516;13.290;2022-11-23T11:35:30;37.67;;;16.95;;
73954;SDS011;62306;52.516;13.290;2022-11-23T11:38:01;34.22;;;17.98;;
73954;SDS011;62306;52.516;13.290;2022-11-23T11:40:36;36.47;;;17.85;;
73954;SDS011;62306;52.516;13.290;2022-11-23T11:43:10;37.38;;;17.77;;
73954;SDS011;62306;52.516;13.290;2022-11-23T11:45:41;38.45;;;18.95;;
73954;SDS011;62306;52.516;13.290;2022-11-23T11:48:11;38.08;;;18.05;;
73954;SDS011;62306;52.516;13.290;2022-11-23T11:50:43;41.20;;;17.98;;
73954;SDS011;62306;52.516;13.290;2022-11-23T11:53:17;33.03;;;16.30;;
73954;SDS011;62306;52.516;13.290;2022-11-23T11:55:48;33.70;;;17.25;;
73954;SDS011;62306;52.516;13.290;2022-11-23T11:58:18;37.00;;;17.23;;
73954;SDS011;62306;52.516;13.290;2022-11-23T12:00:49;35.42;;;16.70;;
73954;SDS011;62306;52.516;13.290;2022-11-23T12:03:19;33.45;;;16.42;;
73954;SDS011;62306;52.516;13.290;2022-11-23T12:05:52;30.05;;;15.95;;
73954;SDS011;62306;52.516;13.290;2022-11-23T12:08:23;35.00;;;15.55;;
73954;SDS011;62306;52.516;13.290;2022-11-23T12:10:58;31.52;;;15.25;;
73954;SDS011;62306;52.516;13.290;2022-11-23T12:13:27;33.65;;;14.63;;
73954;SDS011;62306;52.516;13.290;2022-11-23T12:15:59;31.75;;;16.65;;
73954;SDS011;62306;52.516;13.290;2022-11-23T12:18:40;29.38;;;13.95;;
73954;SDS011;62306;52.516;13.290;2022-11-23T12:21:19;30.48;;;15.50;;
73954;SDS011;62306;52.516;13.290;2022-11-23T12:24:05;31.20;;;14.95;;
73954;SDS011;62306;52.516;13.290;2022-11-23T12:26:42;28.38;;;15.15;;
73954;SDS011;62306;52.516;13.290;2022-11-23T12:29:22;35.75;;;15.95;;
73954;SDS011;62306;52.516;13.290;2022-11-23T12:31:58;35.13;;;15.38;;
73954;SDS011;62306;52.516;13.290;2022-11-23T12:34:34;34.42;;;16.05;;
73954;SDS011;62306;52.516;13.290;2022-11-23T12:37:18;29.50;;;14.50;;
73954;SDS011;62306;52.516;13.290;2022-11-23T12:39:59;31.10;;;15.77;;
73954;SDS011;62306;52.516;13.290;2022-11-23T12:42:37;35.35;;;16.50;;
73954;SDS011;62306;52.516;13.290;2022-11-23T12:45:31;29.77;;;16.10;;
73954;SDS011;62306;52.516;13.290;2022-11-23T12:48:14;35.20;;;14.85;;
73954;SDS011;62306;52.516;13.290;2022-11-23T12:50:49;30.80;;;15.55;;
73954;SDS011;62306;52.516;13.290;2022-11-23T12:53:28;34.13;;;15.90;;
73954;SDS011;62306;52.516;13.290;2022-11-23T12:56:07;37.00;;;19.00;;
73954;SDS011;62306;52.516;13.290;2022-11-23T12:58:43;33.35;;;16.63;;
73954;SDS011;62306;52.516;13.290;2022-11-23T13:01:13;36.33;;;18.27;;
73954;SDS011;62306;52.516;13.290;2022-11-23T13:15:51;26.45;;;14.00;;
73954;SDS011;62306;52.516;13.290;2022-11-23T13:18:44;32.03;;;14.60;;
73954;SDS011;62306;52.516;13.290;2022-11-23T13:21:21;35.53;;;15.70;;
73954;SDS011;62306;52.516;13.290;2022-11-23T13:23:55;29.02;;;15.90;;
73954;SDS011;62306;52.516;13.290;2022-11-23T13:26:23;33.67;;;17.05;;
73954;SDS011;62306;52.516;13.290;2022-11-23T13:28:54;32.55;;;15.82;;
73954;SDS011;62306;52.516;13.290;2022-11-23T13:31:24;31.75;;;16.38;;
73954;SDS011;62306;52.516;13.290;2022-11-23T13:33:53;30.58;;;16.35;;
73954;SDS011;62306;52.516;13.290;2022-11-23T13:36:35;46.03;;;20.15;;
73954;SDS011;62306;52.516;13.290;2022-11-23T13:42:09;31.08;;;14.88;;
73954;SDS011;62306;52.516;13.290;2022-11-23T13:44:38;33.55;;;17.17;;
73954;SDS011;62306;52.516;13.290;2022-11-23T13:47:06;31.15;;;17.23;;
73954;SDS011;62306;52.516;13.290;2022-11-23T13:49:45;35.92;;;16.70;;
73954;SDS011;62306;52.516;13.290;2022-11-23T13:55:00;30.08;;;16.10;;
73954;SDS011;62306;52.516;13.290;2022-11-23T13:57:30;31.08;;;15.80;;
73954;SDS011;62306;52.516;13.290;2022-11-23T14:06:09;35.17;;;15.35;;
73954;SDS011;62306;52.516;13.290;2022-11-23T14:08:38;28.75;;;15.65;;
73954;SDS011;62306;52.516;13.290;2022-11-23T14:11:09;36.75;;;18.25;;
73954;SDS011;62306;52.516;13.290;2022-11-23T14:13:39;37.90;;;17.85;;
73954;SDS011;62306;52.516;13.290;2022-11-23T14:16:13;36.50;;;17.58;;
73954;SDS011;62306;52.516;13.290;2022-11-23T14:18:52;35.05;;;17.27;;
73954;SDS011;62306;52.516;13.290;2022-11-23T14:21:31;31.20;;;15.52;;
73954;SDS011;62306;52.516;13.290;2022-11-23T14:24:19;30.33;;;15.68;;
73954;SDS011;62306;52.516;13.290;2022-11-23T14:26:59;30.80;;;15.45;;
73954;SDS011;62306;52.516;13.290;2022-11-23T14:29:40;26.55;;;14.75;;
73954;SDS011;62306;52.516;13.290;2022-11-23T14:32:26;28.73;;;14.27;;
73954;SDS011;62306;52.516;13.290;2022-11-23T14:35:09;32.08;;;15.02;;
73954;SDS011;62306;52.516;13.290;2022-11-23T14:37:46;33.97;;;14.57;;
73954;SDS011;62306;52.516;13.290;2022-11-23T14:40:26;27.52;;;14.52;;
73954;SDS011;62306;52.516;13.290;2022-11-23T14:42:55;28.25;;;15.00;;
73954;SDS011;62306;52.516;13.290;2022-11-23T14:45:26;34.03;;;14.98;;
73954;SDS011;62306;52.516;13.290;2022-11-23T14:47:54;30.35;;;15.55;;
73954;SDS011;62306;52.516;13.290;2022-11-23T14:50:22;29.50;;;14.90;;
73954;SDS011;62306;52.516;13.290;2022-11-23T14:52:51;29.85;;;14.52;;
73954;SDS011;62306;52.516;13.290;2022-11-23T14:55:20;32.70;;;14.32;;
73954;SDS011;62306;52.516;13.290;2022-11-23T14:57:49;34.53;;;18.00;;
73954;SDS011;62306;52.516;13.290;2022-11-23T15:00:25;36.03;;;16.75;;
73954;SDS011;62306;52.516;13.290;2022-11-23T15:02:55;37.95;;;16.92;;
73954;SDS011;62306;52.516;13.290;2022-11-23T15:05:26;33.83;;;16.50;;
73954;SDS011;62306;52.516;13.290;2022-11-23T15:07:59;32.88;;;16.60;;
73954;SDS011;62306;52.516;13.290;2022-11-23T15:10:38;33.28;;;17.17;;
73954;SDS011;62306;52.516;13.290;2022-11-23T15:13:15;34.45;;;16.60;;
73954;SDS011;62306;52.516;13.290;2022-11-23T15:15:47;34.80;;;16.77;;
73954;SDS011;62306;52.516;13.290;2022-11-23T15:18:27;38.03;;;17.42;;
73954;SDS011;62306;52.516;13.290;2022-11-23T15:20:56;35.78;;;16.52;;
73954;SDS011;62306;52.516;13.290;2022-11-23T15:23:28;33.97;;;17.23;;
73954;SDS011;62306;52.516;13.290;2022-11-23T15:26:02;39.45;;;17.38;;
73954;SDS011;62306;52.516;13.290;2022-11-23T15:28:32;33.42;;;17.02;;
73954;SDS011;62306;52.516;13.290;2022-11-23T15:31:15;34.00;;;16.83;;
73954;SDS011;62306;52.516;13.290;2022-11-23T15:33:44;36.42;;;16.50;;
73954;SDS011;62306;52.516;13.290;2022-11-23T15:36:12;32.47;;;16.98;;
73954;SDS011;62306;52.516;13.290;2022-11-23T15:38:43;33.40;;;16.38;;
73954;SDS011;62306;52.516;13.290;2022-11-23T15:41:10;29.77;;;14.80;;
73954;SDS011;62306;52.516;13.290;2022-11-23T15:43:37;33.75;;;16.63;;
73954;SDS011;62306;52.516;13.290;2022-11-23T15:46:17;34.40;;;17.13;;
73954;SDS011;62306;52.516;13.290;2022-11-23T15:48:46;33.25;;;16.30;;
73954;SDS011;62306;52.516;13.290;2022-11-23T15:51:18;38.63;;;18.10;;
73954;SDS011;62306;52.516;13.290;2022-11-23T15:53:56;32.00;;;16.00;;
73954;SDS011;62306;52.516;13.290;2022-11-23T15:56:25;37.60;;;17.20;;
73954;SDS011;62306;52.516;13.290;2022-11-23T15:58:54;34.95;;;17.10;;
73954;SDS011;62306;52.516;13.290;2022-11-23T16:01:22;34.72;;;16.10;;
73954;SDS011;62306;52.516;13.290;2022-11-23T16:03:50;33.63;;;17.10;;
73954;SDS011;62306;52.516;13.290;2022-11-23T16:06:35;35.80;;;16.77;;
73954;SDS011;62306;52.516;13.290;2022-11-23T16:09:32;33.85;;;17.00;;
73954;SDS011;62306;52.516;13.290;2022-11-23T16:12:00;37.35;;;18.42;;
73954;SDS011;62306;52.516;13.290;2022-11-23T16:14:28;40.33;;;19.05;;
73954;SDS011;62306;52.516;13.290;2022-11-23T16:17:02;36.08;;;16.20;;
73954;SDS011;62306;52.516;13.290;2022-11-23T16:19:31;32.97;;;15.98;;
73954;SDS011;62306;52.516;13.290;2022-11-23T16:21:59;33.58;;;16.25;;
73954;SDS011;62306;52.516;13.290;2022-11-23T16:24:28;33.08;;;15.57;;
73954;SDS011;62306;52.516;13.290;2022-11-23T16:26:57;29.50;;;16.92;;
73954;SDS011;62306;52.516;13.290;2022-11-23T16:29:26;36.90;;;17.80;;
73954;SDS011;62306;52.516;13.290;2022-11-23T16:34:25;39.05;;;15.75;;
73954;SDS011;62306;52.516;13.290;2022-11-23T16:36:52;33.67;;;16.55;;
73954;SDS011;62306;52.516;13.290;2022-11-23T16:39:21;37.67;;;17.80;;
73954;SDS011;62306;52.516;13.290;2022-11-23T16:41:49;35.72;;;17.33;;
73954;SDS011;62306;52.516;13.290;2022-11-23T16:44:17;35.53;;;16.42;;
73954;SDS011;62306;52.516;13.290;2022-11-23T16:46:45;34.00;;;16.67;;
73954;SDS011;62306;52.516;13.290;2022-11-23T16:49:13;32.50;;;16.77;;
73954;SDS011;62306;52.516;13.290;2022-11-23T16:51:43;34.83;;;17.33;;
73954;SDS011;62306;52.516;13.290;2022-11-23T16:54:13;34.97;;;17.63;;
73954;SDS011;62306;52.516;13.290;2022-11-23T16:56:41;30.48;;;16.45;;
73954;SDS011;62306;52.516;13.290;2022-11-23T16:59:12;32.85;;;17.30;;
73954;SDS011;62306;52.516;13.290;2022-11-23T17:01:42;34.40;;;17.02;;
73954;SDS011;62306;52.516;13.290;2022-11-23T17:04:12;33.33;;;17.15;;
73954;SDS011;62306;52.516;13.290;2022-11-23T17:06:40;36.30;;;16.83;;
73954;SDS011;62306;52.516;13.290;2022-11-23T17:09:07;33.83;;;17.10;;
73954;SDS011;62306;52.516;13.290;2022-11-23T17:11:36;37.95;;;18.15;;
73954;SDS011;62306;52.516;13.290;2022-11-23T17:14:05;37.60;;;19.10;;